• Join FlightAware (Why Join?)
  • Login
  • US Flag GB Flag 
07:50 EDT


 

Airport Tracker/Info


-or-


 

Live Flight TrackerFlight Track Log ✈ EJA929 ✈ 13-Jul-2013 ✈ KAPF - KSAF

Flight Track Log - Related Links

Times and Time Zones

All times are in EDT time to prevent confusion due to time zone crossing. See the EJA929 flight status page for this flight to view local times or setup timezone preferences in your user account.

Time Position Orientation Groundspeed Altitude Reporting Facility
EDT Latitude Longitude Course Direction KTS MPH feet Rate Location/Type
09:17 26.1283 -81.9264 307° West 241 277 8,200  Level Miami Center
09:18 26.1278 -82.0003 270° West 241 277 12,000 2,940 Climbing Miami Center
09:19 26.1267 -82.0903 269° West 271 312 14,100 2,040 Climbing Miami Center
09:20 26.1228 -82.2011 268° West 333 383 16,100 1,620 Climbing Miami Center
09:21 26.1749 -82.4872 307° West  Level FlightAware Approximate
09:21 26.1142 -82.3211 265° West 380 437 17,400  Level Miami Center
09:22 26.2553 -82.6077 307° West  Level FlightAware Approximate
09:22 26.1117 -82.4436 269° West 397 457 18,900  Level Miami Center
09:23 26.1489 -82.5586 290° West 397 457 20,300 1,440 Climbing Miami Center
09:24 26.2072 -82.6631 302° West 379 436 21,800 1,500 Climbing Miami Center
09:25 26.2636 -82.7700 300° West 392 451 23,300 1,500 Climbing Miami Center
09:26 26.3239 -82.8772 302° West 407 468 24,800 1,500 Climbing Miami Center
09:27 26.3819 -82.9869 301° West 412 474 26,400 1,500 Climbing Miami Center
09:28 26.4439 -83.1014 301° West 418 481 27,900 1,500 Climbing Miami Center
09:29 26.5017 -83.2111 300° West 425 489 29,400 1,500 Climbing Miami Center
09:30 26.5653 -83.3281 301° West 430 495 30,900 1,500 Climbing Miami Center
09:31 26.6269 -83.4453 300° West 435 501 32,400 1,500 Climbing Miami Center
09:32 26.6903 -83.5628 301° West 435 501 33,900 1,500 Climbing Miami Center
09:33 26.7514 -83.6822 300° West 435 501 35,400 1,500 Climbing Miami Center
09:34 26.8147 -83.8022 301° West 440 506 36,900 1,320 Climbing Miami Center
09:35 26.8836 -83.9272 302° West 448 516 38,100 1,140 Climbing Miami Center
09:36 26.9464 -84.0497 300° West 456 525 39,200 900 Climbing Miami Center
09:37 27.0131 -84.1772 300° West 468 539 40,000 360 Climbing Miami Center
09:38 27.0817 -84.3075 301° West 479 551 40,000 300 Level Miami Center
09:39 27.1558 -84.4450 301° West 500 575 40,700 660 Climbing Miami Center
09:41 27.3206 -84.7792 299° West 521 600 42,300 660 Climbing Jacksonville Center
09:42 27.3769 -84.8794 302° West 497 572 42,900 360 Climbing Houston Center
09:43 27.4467 -85.0133 300° West 495 570 43,000  Climbing Houston Center
09:44 27.5164 -85.1508 300° West 502 578 42,900  Descending Houston Center
09:45 27.6008 -85.3164 300° West 506 582 43,000  Climbing Houston Center
09:46 27.6844 -85.4489 305° West 513 590 43,000 -60 Level Jacksonville Center
09:47 27.7675 -85.5658 309° West 499 574 42,900  Descending Jacksonville Center
09:48 27.8522 -85.6972 306° West 504 580 43,000  Climbing Jacksonville Center
09:49 27.9286 -85.8286 303° West 509 586 42,900 -60 Descending Jacksonville Center
09:50 28.0008 -85.9575 302° West 501 577 42,900  Level Jacksonville Center
09:51 28.0747 -86.0892 302° West 494 568 43,000  Climbing Jacksonville Center
09:52 28.1444 -86.2183 301° West 489 563 43,000 -60 Level Jacksonville Center
09:53 28.2164 -86.3456 303° West 489 563 42,900  Descending Jacksonville Center
09:54 28.2897 -86.4825 301° West 489 563 43,000  Climbing Jacksonville Center
09:55 28.3611 -86.6100 302° West 489 563 43,000  Level Jacksonville Center
09:56 28.4344 -86.7472 301° West 497 572 43,000  Level Jacksonville Center
09:57 28.5075 -86.8775 303° West 497 572 43,000  Level Jacksonville Center
09:58 28.5783 -87.0128 301° West 497 572 43,000  Level Jacksonville Center
09:59 28.6533 -87.1481 302° West 502 578 43,000  Level Jacksonville Center
10:00 28.7200 -87.2764 301° West 499 574 43,000  Level Jacksonville Center
10:01 28.7925 -87.4100 302° West 504 580 43,000 -60 Level Jacksonville Center
10:03 28.8961 -87.5992 302° West 496 571 42,900  Descending Houston Center
10:04 28.9661 -87.7331 301° West 494 568 43,000  Climbing Houston Center
10:05 29.0375 -87.8653 302° West 491 565 43,000  Level Houston Center
10:06 29.1078 -88.0003 301° West 492 566 43,000  Level Houston Center
10:07 29.1831 -88.1433 301° West 499 574 43,000  Level Houston Center
10:08 29.2550 -88.2800 301° West 501 577 43,000  Level Houston Center
10:09 29.3250 -88.4158 301° West 497 572 43,000  Level Houston Center
10:10 29.3981 -88.5525 302° West 501 577 43,000  Level Houston Center
10:11 29.4672 -88.6881 300° West 497 572 43,000  Level Houston Center
10:12 29.5511 -88.8517 301° West 496 571 43,000  Level Houston Center
10:13 29.6200 -88.9872 300° West 492 566 43,000  Level Houston Center
10:14 29.6892 -89.1225 301° West 489 563 43,000  Level Houston Center
10:15 29.7581 -89.2575 300° West 489 563 43,000  Level Houston Center
10:16 29.8278 -89.3936 301° West 492 566 43,000  Level Houston Center
10:17 29.8969 -89.5306 300° West 490 564 43,000  Level Houston Center
10:18 29.9664 -89.6686 300° West 494 568 43,000  Level Houston Center
10:19 30.0356 -89.8078 300° West 495 570 43,000  Level Houston Center
10:20 30.1067 -89.9472 301° West 496 571 43,000  Level Houston Center
10:21 30.1892 -90.1119 300° West 488 562 43,000  Level Houston Center
10:22 30.2586 -90.2511 300° West 495 570 43,000  Level Houston Center
10:23 30.3278 -90.3894 300° West 497 572 43,000 -60 Level Houston Center
10:24 30.3964 -90.5275 300° West 495 570 42,900  Descending Houston Center
10:25 30.4636 -90.6656 299° West 493 567 43,000  Climbing Houston Center
10:26 30.5292 -90.8025 299° West 489 563 43,000  Level Houston Center
10:27 30.5969 -90.9394 300° West 490 564 43,000  Level Houston Center
10:28 30.6644 -91.0772 300° West 493 567 43,000  Level Houston Center
10:30 30.7458 -91.2406 300° West 493 567 43,000  Level Houston Center
10:31 30.8158 -91.3833 300° West 490 564 43,000  Level Houston Center
10:32 30.8831 -91.5208 300° West 490 564 43,000  Level Houston Center
10:33 30.9497 -91.6603 299° West 493 567 43,000  Level Houston Center
10:34 31.0153 -91.7972 299° West 486 559 43,000  Level Houston Center
10:35 31.0822 -91.9375 299° West 495 570 43,000  Level Houston Center
10:36 31.1561 -92.0939 299° West 489 563 43,000  Level Houston Center
10:37 31.2228 -92.2342 299° West 494 568 43,000  Level Houston Center
10:38 31.2914 -92.3778 299° West 502 578 43,000  Level Houston Center
10:39 31.3594 -92.5194 299° West 504 580 43,000  Level Houston Center
10:40 31.4275 -92.6644 299° West 508 585 43,000  Level Houston Center
10:41 31.4950 -92.8081 299° West 508 585 43,000  Level Houston Center
10:42 31.5753 -92.9794 299° West 504 580 43,000  Level Houston Center
10:43 31.6411 -93.1233 298° West 504 580 43,000  Level Houston Center
10:44 31.7092 -93.2681 299° West 506 582 43,000  Level Houston Center
10:45 31.7758 -93.4144 298° West 508 585 43,000  Level Houston Center
10:46 31.8422 -93.5600 298° West 507 583 43,000  Level Houston Center
10:47 31.9217 -93.7342 298° West 506 582 43,000  Level Houston Center
10:48 31.9883 -93.8783 299° West 503 579 43,000  Level Houston Center
10:49 32.0486 -94.0139 298° West 505 581 43,000  Level Fort Worth Center
10:50 32.1131 -94.1611 297° West 505 581 43,000  Level Fort Worth Center
10:51 32.1772 -94.3061 298° West 505 581 43,000  Level Fort Worth Center
10:52 32.2347 -94.4367 298° West 497 572 43,000  Level Fort Worth Center
10:53 32.2986 -94.5822 297° West 497 572 43,000  Level Fort Worth Center
10:54 32.3664 -94.7325 298° West 507 583 43,000  Level Fort Worth Center
10:55 32.4322 -94.8806 298° West 507 583 43,000  Level Fort Worth Center
10:56 32.4956 -95.0292 297° West 507 583 43,000  Level Fort Worth Center
10:57 32.5608 -95.1778 298° West 507 583 43,000  Level Fort Worth Center
10:58 32.6369 -95.3461 298° West 507 583 43,000  Level Fort Worth Center
10:59 32.6958 -95.5003 294° West 507 583 43,000  Level Fort Worth Center
11:00 32.7461 -95.6597 291° West 512 589 43,000  Level Fort Worth Center
11:01 32.7983 -95.8169 292° West 517 595 43,000  Level Fort Worth Center
11:02 32.8481 -95.9792 290° West 517 595 43,000  Level Fort Worth Center
11:03 32.9000 -96.1367 291° West 517 595 43,000  Level Fort Worth Center
11:04 32.9494 -96.2994 290° West 522 601 43,000  Level Fort Worth Center
11:05 33.0008 -96.4597 291° West 522 601 43,000  Level Fort Worth Center
11:06 33.0522 -96.6203 291° West 527 606 43,000  Level Fort Worth Center
11:07 33.1031 -96.7811 291° West 527 606 43,000  Level Fort Worth Center
11:08 33.1539 -96.9444 290° West 527 606 43,000  Level Fort Worth Center
11:09 33.2067 -97.1056 291° West 527 606 43,000  Level Fort Worth Center
11:10 33.2508 -97.2544 290° West 527 606 43,000  Level Fort Worth Center
11:11 33.2989 -97.4183 289° West 527 606 43,000  Level Fort Worth Center
11:12 33.3467 -97.5800 290° West 522 601 43,000  Level Fort Worth Center
11:13 33.3964 -97.7419 290° West 522 601 43,000  Level Fort Worth Center
11:14 33.4439 -97.9089 289° West 528 608 43,000  Level Fort Worth Center
11:15 33.4892 -98.0686 289° West 522 601 43,000  Level Fort Worth Center
11:16 33.5425 -98.2458 290° West 511 588 43,000  Level Fort Worth Center
11:17 33.5872 -98.3933 290° West 517 595 43,000  Level Fort Worth Center
11:18 33.6339 -98.5561 289° West 523 602 43,000  Level Fort Worth Center
11:19 33.6822 -98.7189 290° West 528 608 43,000  Level Fort Worth Center
11:20 33.7286 -98.8844 289° West 528 608 43,000  Level Fort Worth Center
11:21 33.7744 -99.0478 289° West 528 608 43,000  Level Fort Worth Center
11:22 33.8222 -99.2086 290° West 521 600 43,000  Level Fort Worth Center
11:23 33.8678 -99.3722 289° West 521 600 43,000  Level Fort Worth Center
11:24 33.9153 -99.5358 289° West 521 600 43,000  Level Fort Worth Center
11:25 33.9625 -99.7047 289° West 526 605 43,000  Level Fort Worth Center
11:26 34.0072 -99.8689 288° West 526 605 43,000  Level Fort Worth Center
11:27 34.0519 -100.0381 288° West 526 605 43,000  Level Fort Worth Center
11:28 34.0983 -100.2050 289° West 526 605 43,000  Level Fort Worth Center
11:29 34.1447 -100.3672 289° West 526 605 43,000  Level Fort Worth Center
11:30 34.1944 -100.5469 289° West 521 600 43,000  Level Fort Worth Center
11:31 34.2381 -100.7169 287° West 521 600 43,000  Level Fort Worth Center
11:32 34.2817 -100.8844 288° West 526 605 43,000  Level Fort Worth Center
11:34 34.3628 -101.1858 288° West 520 598 43,000  Level Albuquerque Center
11:35 34.4156 -101.3853 288° West 518 596 43,000  Level Albuquerque Center
11:36 34.4592 -101.5528 288° West 520 598 43,000  Level Albuquerque Center
11:37 34.5025 -101.7197 288° West 518 596 43,000  Level Albuquerque Center
11:38 34.5453 -101.8892 287° West 520 598 43,000  Level Albuquerque Center
11:39 34.5886 -102.0561 288° West 518 596 43,000  Level Albuquerque Center
11:40 34.6317 -102.2228 287° West 516 594 43,000  Level Albuquerque Center
11:41 34.6742 -102.3897 287° West 516 594 43,000  Level Albuquerque Center
11:42 34.7150 -102.5572 287° West 517 595 43,000  Level Albuquerque Center
11:43 34.7661 -102.7564 287° West 518 596 43,000  Level Albuquerque Center
11:44 34.8089 -102.9261 287° West 519 597 43,000  Level Albuquerque Center
11:45 34.8500 -103.0953 287° West 519 597 43,000  Level Albuquerque Center
11:46 34.8919 -103.2658 287° West 521 600 43,000  Level Albuquerque Center
11:47 34.9333 -103.4369 286° West 522 601 43,000  Level Albuquerque Center
11:48 34.9753 -103.6089 287° West 523 602 43,000  Level Albuquerque Center
11:49 35.0169 -103.7808 287° West 525 604 43,000  Level Albuquerque Center
11:50 35.0586 -103.9542 286° West 526 605 43,000 -540 Level Albuquerque Center
11:51 35.1067 -104.1525 287° West 533 613 41,900 -1,920 Descending Albuquerque Center
11:52 35.1475 -104.3225 286° West 527 606 39,100 -2,760 Descending Albuquerque Center
11:54 35.1861 -104.4933 286° West 523 602 36,300 -2,760 Descending Albuquerque Center
11:55 35.2242 -104.6642 285° West 533 613 33,500 -3,000 Descending Albuquerque Center
11:56 35.2725 -104.8711 286° West 538 619 30,200 -2,460 Descending Albuquerque Center
11:57 35.3131 -105.0522 285° West 546 628 28,500 -2,340 Descending Albuquerque Center
11:58 35.3531 -105.2261 286° West 533 613 25,500 -2,940 Descending Albuquerque Center
11:59 35.3911 -105.3931 286° West 512 589 22,500 -3,000 Descending Albuquerque Center
12:00 35.4367 -105.5358 291° West 451 519 19,400 -2,640 Descending Albuquerque Center
12:01 35.4953 -105.6589 300° West 426 490 17,100 -1,200 Descending Albuquerque Center
12:02 35.5419 -105.7606 299° West 359 413 17,000 -180 Descending Albuquerque Center
12:03 35.5819 -105.8292 306° West 266 306 16,800 -1,500 Descending Albuquerque Center
12:04 35.6528 -105.8783 331° Northwest 255 293 14,000 -2,760 Descending Albuquerque Center
12:05 35.6886 -105.9428 304° West 248 285 11,200 -2,460 Descending Albuquerque Center
12:06 35.6947 -106.0144 276° West 230 265 9,000 -1,860 Descending Albuquerque Center
12:07 35.6583 -106.0542 222° Southwest 188 216 7,400 -1,560 Descending Albuquerque Center